This is the latest recevied weather packets stored in our database for station/object TG9ADI-20. If no packets are shown the sender has not sent any weather packets the latest 10 day(s).
| Time | Temp. | Humidity | Pressure | Rain* | Wind** | Luminosity | Snow |
|---|---|---|---|---|---|---|---|
| 1777844255 | 23.89° C | 74% | 1012 hPa | 0 mm | - | - | - |
| 1777843655 | 21.67° C | 10% | - | 1.02 mm | - | - | - |
| 1777843054 | 21.67° C | 10% | - | 1.78 mm | - | - | - |
| 1777842453 | 21.67° C | 10% | - | 1.78 mm | - | - | - |
| 1777841853 | 22.78° C | 10% | - | 1.27 mm | - | - | - |
| 1777841252 | 22.78° C | 10% | - | 1.02 mm | - | - | - |
| 1777840651 | 22.78° C | 10% | - | 1.02 mm | - | - | - |
| 1777840051 | 22.78° C | 10% | - | 0.51 mm | - | - | - |
| 1777839450 | 22.78° C | 10% | - | 0 mm | - | - | - |
| 1777838850 | 22.78° C | 10% | - | 0.25 mm | - | - | - |
| 1777838249 | 23.33° C | 81% | 1012 hPa | 0 mm | - | - | - |
| 1777837648 | 23.33° C | 81% | 1012 hPa | 0 mm | - | - | - |
| 1777837048 | 24.44° C | 72% | 1012 hPa | 0 mm | - | - | - |
| 1777836447 | 25.56° C | 50% | 1013 hPa | 0 mm | - | - | - |
| 1777835846 | 25.56° C | 50% | 1013 hPa | 0 mm | - | - | - |
| 1777835246 | 25.56° C | 49% | 1013 hPa | 0 mm | - | - | - |
| 1777834645 | 27.78° C | 47% | 1013 hPa | 0 mm | - | - | - |
| 1777834045 | 23.33° C | 10% | - | 0 mm | - | - | - |
| 1777833444 | 26.11° C | 71% | 1013 hPa | 0 mm | - | - | - |
| 1777832843 | 26.67° C | 49% | 1014 hPa | 0 mm | - | - | - |
| 1777832243 | 26.67° C | 64% | 1014 hPa | 0 mm | - | - | - |
| 1777831642 | 27.78° C | 47% | 1014 hPa | 0 mm | - | - | - |
| 1777831041 | 26.11° C | 50% | 1014 hPa | 0 mm | - | - | - |
| 1777830441 | 26.67° C | 50% | 1014 hPa | 0 mm | - | - | - |
| 1777829840 | 26.11° C | 66% | 1015 hPa | 0 mm | - | - | - |
* Rain latest hour (hover to see other rain measurements)
** Current wind speed in m/s (hover to see current wind gust speed)